Time;durP1;ratioP1;P1;durP2;ratioP2;P2;SDS_P1;SDS_P2;PMS_P1;PMS_P2;Temp;Humidity;BMP_temperature;BMP_pressure;BME280_temperature;BME280_humidity;BME280_pressure;Samples;Min_cycle;Max_cycle;Signal;HPM_P1;HPM_P2
2022/12/22 03:25:55;;;;;;;14.95;11.60;;;;;;;8.32;100.00;100149.75;5047574;28;20114;-53
2022/12/22 03:28:26;;;;;;;14.73;13.07;;;;;;;8.30;100.00;100143.72;5036696;28;20068;-56
2022/12/22 03:31:01;;;;;;;14.95;12.18;;;;;;;8.33;100.00;100145.31;5050564;28;20029;-53
2022/12/22 03:33:27;;;;;;;13.85;12.18;;;;;;;8.30;100.00;100142.91;5051017;28;20483;-56
2022/12/22 03:35:52;;;;;;;15.15;12.77;;;;;;;8.30;100.00;100138.44;5050991;28;20029;-56
2022/12/22 03:38:18;;;;;;;18.65;12.25;;;;;;;8.30;100.00;100135.78;5051672;28;20323;-55
2022/12/22 03:40:43;;;;;;;12.65;11.20;;;;;;;8.30;100.00;100132.31;5050421;28;20146;-56
2022/12/22 03:48:43;;;;;;;11.90;10.70;;;;;;;8.29;100.00;100127.97;5055199;28;20068;-55
2022/12/22 03:51:09;;;;;;;13.15;11.60;;;;;;;8.29;100.00;100126.19;5054564;28;20132;-55
2022/12/22 03:53:35;;;;;;;12.73;11.27;;;;;;;8.28;100.00;100129.78;5053595;28;20025;-55
2022/12/22 03:56:00;;;;;;;12.95;11.30;;;;;;;8.29;100.00;100134.13;5054909;28;20382;-56
2022/12/22 03:58:27;;;;;;;11.43;10.20;;;;;;;8.25;100.00;100124.72;5054955;28;20057;-56
2022/12/22 04:01:02;;;;;;;12.98;11.63;;;;;;;8.26;100.00;100118.50;5054176;28;20036;-56
2022/12/22 04:03:28;;;;;;;14.95;13.35;;;;;;;8.28;100.00;100115.72;5054847;28;20032;-55
2022/12/22 04:05:53;;;;;;;16.45;14.65;;;;;;;8.30;100.00;100116.44;5053775;28;20025;-55
2022/12/22 04:08:18;;;;;;;14.50;12.68;;;;;;;8.28;100.00;100115.72;5054530;28;20025;-53
2022/12/22 04:13:28;;;;;;;13.65;12.18;;;;;;;8.23;100.00;100118.72;5054725;28;20040;-56
2022/12/22 04:15:53;;;;;;;12.15;10.95;;;;;;;8.24;100.00;100116.91;5054178;28;20052;-55
2022/12/22 04:18:18;;;;;;;12.60;11.27;;;;;;;8.21;100.00;100119.78;5053881;28;20036;-53
2022/12/22 04:20:43;;;;;;;14.43;11.30;;;;;;;8.21;100.00;100109.22;5054362;28;20104;-56
2022/12/22 04:23:09;;;;;;;10.82;9.73;;;;;;;8.19;100.00;100116.44;5054183;28;20054;-53
2022/12/22 04:25:34;;;;;;;14.55;10.75;;;;;;;8.18;100.00;100118.25;5052429;28;20032;-55
2022/12/22 04:27:59;;;;;;;14.07;11.65;;;;;;;8.19;100.00;100105.84;5043187;28;20033;-56
2022/12/22 04:30:24;;;;;;;11.38;9.60;;;;;;;8.18;100.00;100118.25;5054088;28;20087;-52
2022/12/22 04:32:50;;;;;;;12.32;10.38;;;;;;;8.17;100.00;100121.84;5054710;28;20108;-56
2022/12/22 04:35:15;;;;;;;10.63;9.60;;;;;;;8.18;100.00;100122.69;5053504;28;20029;-57
2022/12/22 04:37:40;;;;;;;10.82;9.73;;;;;;;8.14;100.00;100124.72;5054629;28;20078;-55
2022/12/22 04:40:06;;;;;;;11.02;9.88;;;;;;;8.14;100.00;100128.22;5054400;28;20108;-54
2022/12/22 04:42:31;;;;;;;11.50;10.30;;;;;;;8.14;100.00;100125.59;5053778;28;20036;-54
2022/12/22 04:44:57;;;;;;;12.68;9.98;;;;;;;8.15;100.00;100126.41;5053808;28;20062;-54
2022/12/22 04:47:22;;;;;;;11.52;10.18;;;;;;;8.14;100.00;100130.00;5054103;28;20467;-54
2022/12/22 04:49:47;;;;;;;11.30;9.98;;;;;;;8.12;100.00;100132.78;5053389;28;20394;-56
2022/12/22 04:52:13;;;;;;;13.80;10.38;;;;;;;8.14;100.00;100130.00;5054191;28;20035;-54
2022/12/22 04:54:38;;;;;;;11.02;9.93;;;;;;;8.13;100.00;100128.34;5052702;28;20471;-53
2022/12/22 04:57:03;;;;;;;10.35;9.35;;;;;;;8.12;100.00;100129.31;5053806;28;20103;-52
2022/12/22 04:59:29;;;;;;;10.63;9.52;;;;;;;8.13;100.00;100120.41;5052874;28;20021;-54
2022/12/22 05:01:54;;;;;;;11.77;9.13;;;;;;;8.13;100.00;100112.47;5053839;28;20091;-54
2022/12/22 05:04:19;;;;;;;14.25;10.15;;;;;;;8.13;100.00;100115.13;5053266;28;20021;-54
2022/12/22 05:06:44;;;;;;;16.70;9.80;;;;;;;8.14;100.00;100115.00;5052997;28;20493;-53
2022/12/22 05:09:10;;;;;;;13.13;10.73;;;;;;;8.12;100.00;100116.06;5053106;28;20029;-55
2022/12/22 05:11:36;;;;;;;10.75;9.55;;;;;;;8.12;100.00;100124.84;5052633;28;20028;-55
2022/12/22 05:14:01;;;;;;;13.90;10.38;;;;;;;8.12;100.00;100121.38;5053150;28;20032;-52
2022/12/22 05:16:26;;;;;;;12.20;10.90;;;;;;;8.11;100.00;100117.88;5053044;28;20076;-52
2022/12/22 05:18:52;;;;;;;13.23;11.05;;;;;;;8.10;100.00;100118.84;5052128;28;20374;-54
2022/12/22 05:21:20;;;;;;;11.02;9.90;;;;;;;8.09;100.00;100129.53;5053238;28;20028;-53
2022/12/22 05:23:46;;;;;;;12.60;10.02;;;;;;;8.06;100.00;100132.41;5053350;28;20178;-52
2022/12/22 05:26:13;;;;;;;17.00;9.60;;;;;;;8.04;100.00;100140.47;5046163;28;20026;-55
2022/12/22 05:28:39;;;;;;;13.80;8.20;;;;;;;8.02;100.00;100137.09;5046344;28;20155;-53
2022/12/22 05:31:09;;;;;;;9.05;8.15;;;;;;;8.02;100.00;100138.91;5053093;28;20047;-54
2022/12/22 05:33:35;;;;;;;19.23;8.52;;;;;;;8.00;100.00;100146.13;5051998;28;20035;-54
2022/12/22 05:36:00;;;;;;;8.93;7.65;;;;;;;8.01;100.00;100142.50;5052286;28;20020;-54
2022/12/22 05:38:26;;;;;;;8.63;7.82;;;;;;;7.98;100.00;100143.59;5053111;28;20040;-56
2022/12/22 05:40:51;;;;;;;20.35;7.32;;;;;;;7.98;100.00;100146.25;5053157;28;20031;-54
2022/12/22 05:43:17;;;;;;;26.52;8.00;;;;;;;7.96;100.00;100151.66;5052227;28;20036;-55
2022/12/22 05:45:45;;;;;;;20.40;8.23;;;;;;;7.97;100.00;100155.13;5053016;28;20079;-55
2022/12/22 05:48:11;;;;;;;24.75;7.97;;;;;;;7.95;100.00;100152.59;5040260;28;20025;-54
2022/12/22 05:50:37;;;;;;;21.45;7.72;;;;;;;7.95;100.00;100152.59;5052609;28;20036;-53
2022/12/22 05:53:03;;;;;;;25.98;7.47;;;;;;;7.95;100.00;100163.19;5052714;28;20074;-56
2022/12/22 05:55:29;;;;;;;18.00;7.88;;;;;;;7.94;100.00;100161.50;5051908;28;20033;-55
2022/12/22 05:57:54;;;;;;;22.67;8.77;;;;;;;7.96;100.00;100174.63;5039900;28;20029;-55
2022/12/22 06:00:20;;;;;;;21.85;8.23;;;;;;;7.95;100.00;100181.69;5044633;28;20034;-56
2022/12/22 06:02:45;;;;;;;25.85;8.60;;;;;;;7.97;100.00;100190.34;5046478;28;20037;-56
2022/12/22 06:05:12;;;;;;;12.02;7.95;;;;;;;7.95;100.00;100194.06;5052966;28;20056;-55
2022/12/22 06:07:38;;;;;;;9.88;8.80;;;;;;;7.95;100.00;100202.84;5050607;28;20052;-55
2022/12/22 06:10:05;;;;;;;28.52;9.60;;;;;;;7.96;100.00;100203.72;5052100;28;20489;-55
2022/12/22 06:12:30;;;;;;;28.90;9.63;;;;;;;7.95;100.00;100205.50;5051283;28;20025;-56
2022/12/22 06:14:55;;;;;;;11.73;9.30;;;;;;;7.95;100.00;100209.94;5051413;28;20506;-56
2022/12/22 06:17:21;;;;;;;23.08;10.38;;;;;;;7.95;100.00;100208.13;5052337;28;20025;-55
2022/12/22 06:19:46;;;;;;;16.02;10.80;;;;;;;7.96;100.00;100211.63;5051867;28;20040;-51
2022/12/22 06:22:11;;;;;;;19.48;12.30;;;;;;;7.96;100.00;100222.22;5052135;28;20431;-51
2022/12/22 06:24:36;;;;;;;19.05;13.52;;;;;;;7.97;100.00;100224.72;5051670;28;20029;-52
2022/12/22 06:27:02;;;;;;;16.98;13.70;;;;;;;7.97;100.00;100231.81;5038933;28;20021;-51
2022/12/22 06:29:27;;;;;;;19.20;14.73;;;;;;;7.98;100.00;100238.81;5052308;28;20034;-54
2022/12/22 06:31:52;;;;;;;21.08;15.80;;;;;;;7.99;100.00;100242.28;5051268;28;20025;-51
2022/12/22 06:34:18;;;;;;;22.77;18.17;;;;;;;8.01;100.00;100240.34;5052324;28;20017;-51
2022/12/22 06:36:45;;;;;;;28.33;20.90;;;;;;;8.03;100.00;100249.03;5051894;28;20041;-52
2022/12/22 06:39:11;;;;;;;29.30;20.92;;;;;;;8.02;100.00;100250.00;5051647;28;20039;-52
2022/12/22 06:44:20;;;;;;;40.10;24.10;;;;;;;8.06;100.00;100254.94;5052092;28;20098;-53
2022/12/22 06:46:45;;;;;;;41.38;24.02;;;;;;;8.06;100.00;100259.34;5049349;28;20029;-52
2022/12/22 06:49:10;;;;;;;49.17;25.63;;;;;;;8.07;100.00;100263.72;5046939;28;20469;-52
2022/12/22 06:51:36;;;;;;;48.90;25.15;;;;;;;8.09;100.00;100272.34;5038766;28;20029;-55
2022/12/22 06:54:01;;;;;;;50.08;24.88;;;;;;;8.10;100.00;100274.88;5041098;28;20113;-53
2022/12/22 06:56:26;;;;;;;44.83;24.50;;;;;;;8.10;100.00;100274.06;5049011;28;20024;-53
2022/12/22 06:58:52;;;;;;;49.42;24.70;;;;;;;8.11;100.00;100278.38;5051883;28;20032;-52
2022/12/22 07:01:17;;;;;;;50.53;25.42;;;;;;;8.11;100.00;100279.25;5051064;28;20029;-54
2022/12/22 07:03:42;;;;;;;46.08;24.42;;;;;;;8.12;100.00;100288.84;5030769;28;20430;-52
2022/12/22 07:06:07;;;;;;;46.33;23.90;;;;;;;8.12;100.00;100302.06;5044269;28;20041;-52
2022/12/22 07:08:33;;;;;;;44.17;24.63;;;;;;;8.10;100.00;100303.16;5039231;28;20480;-56
2022/12/22 07:10:58;;;;;;;41.65;24.50;;;;;;;8.12;100.00;100322.38;5043334;28;20037;-52
2022/12/22 07:13:26;;;;;;;47.15;23.83;;;;;;;8.12;100.00;100322.38;5045262;28;20110;-55
2022/12/22 07:15:52;;;;;;;42.25;24.65;;;;;;;8.11;100.00;100328.63;5046623;28;20375;-55
2022/12/22 07:18:18;;;;;;;44.20;24.30;;;;;;;8.11;100.00;100332.13;5048362;28;20033;-55
2022/12/22 07:20:43;;;;;;;43.88;24.67;;;;;;;8.10;100.00;100327.78;5046619;28;20052;-57
2022/12/22 07:23:08;;;;;;;39.80;23.92;;;;;;;8.10;100.00;100324.31;5051158;28;20037;-55
2022/12/22 07:25:34;;;;;;;43.88;25.15;;;;;;;8.09;100.00;100322.63;5049388;28;20029;-54
2022/12/22 07:27:59;;;;;;;47.28;25.27;;;;;;;8.09;100.00;100322.63;5053630;28;20048;-54
2022/12/22 07:30:24;;;;;;;44.10;25.80;;;;;;;8.07;100.00;100321.91;5051581;28;20044;-56
2022/12/22 07:32:50;;;;;;;42.53;25.85;;;;;;;8.05;100.00;100326.47;5051857;28;20036;-55
2022/12/22 07:35:15;;;;;;;46.10;26.40;;;;;;;8.03;100.00;100321.28;5048644;28;20033;-55
2022/12/22 07:37:40;;;;;;;43.17;25.67;;;;;;;8.01;100.00;100328.50;5048376;28;20578;-53
2022/12/22 07:40:06;;;;;;;45.58;25.15;;;;;;;8.00;100.00;100331.25;5051693;28;20052;-56
2022/12/22 07:42:43;;;;;;;44.20;26.30;;;;;;;7.99;100.00;100329.56;5050966;28;20033;-57
2022/12/22 07:45:16;;;;;;;44.35;25.98;;;;;;;7.96;100.00;100336.75;5047921;28;20036;-56
2022/12/22 07:47:42;;;;;;;42.90;25.27;;;;;;;7.96;100.00;100346.50;5051439;28;20045;-56
2022/12/22 07:50:27;;;;;;;43.38;25.92;;;;;;;7.95;100.00;100358.03;5043766;28;20029;-56
2022/12/22 07:53:00;;;;;;;47.42;27.30;;;;;;;7.94;100.00;100365.13;5042996;28;20045;-55
2022/12/22 07:55:29;;;;;;;48.67;26.05;;;;;;;7.93;100.00;100374.00;5045173;28;20048;-56
2022/12/22 07:57:55;;;;;;;52.10;28.73;;;;;;;7.92;100.00;100377.59;5046522;28;20076;-55
2022/12/22 08:00:21;;;;;;;57.05;30.30;;;;;;;7.92;100.00;100404.03;5035008;28;20036;-57
2022/12/22 08:02:49;;;;;;;56.78;30.25;;;;;;;7.90;100.00;100408.59;5045052;28;20029;-56
2022/12/22 08:05:14;;;;;;;59.30;30.25;;;;;;;7.91;100.00;100412.06;5054568;28;20064;-55
2022/12/22 08:07:39;;;;;;;59.92;31.55;;;;;;;7.89;100.00;100422.78;5051033;28;20064;-56
2022/12/22 08:10:05;;;;;;;51.55;28.75;;;;;;;7.90;100.00;100426.28;5053464;28;20036;-55
2022/12/22 08:12:31;;;;;;;58.80;31.15;;;;;;;7.89;100.00;100421.94;5054591;28;20421;-55
2022/12/22 08:14:58;;;;;;;58.95;29.90;;;;;;;7.89;100.00;100429.84;5053062;28;20136;-57
2022/12/22 08:17:25;;;;;;;64.28;29.55;;;;;;;7.85;100.00;100429.25;5052644;28;20053;-57
2022/12/22 08:19:50;;;;;;;57.97;29.23;;;;;;;7.88;100.00;100434.31;5054322;28;20025;-57
2022/12/22 08:22:16;;;;;;;60.25;30.75;;;;;;;7.89;100.00;100440.44;5054526;28;20522;-55
2022/12/22 08:24:41;;;;;;;57.72;29.25;;;;;;;7.88;100.00;100444.06;5040330;28;20112;-55
2022/12/22 08:27:14;;;;;;;64.30;31.17;;;;;;;7.89;100.00;100437.78;5034477;28;20036;-56
2022/12/22 08:29:44;;;;;;;56.10;29.45;;;;;;;7.88;100.00;100433.47;5033190;28;20037;-55
2022/12/22 08:32:10;;;;;;;54.67;28.90;;;;;;;7.87;100.00;100445.84;5035843;28;20045;-56
2022/12/22 08:34:36;;;;;;;51.95;27.58;;;;;;;7.85;100.00;100454.84;5049033;28;20024;-57
2022/12/22 08:37:05;;;;;;;47.35;26.55;;;;;;;7.85;100.00;100460.97;5047228;28;20025;-56
2022/12/22 08:39:35;;;;;;;47.35;26.52;;;;;;;7.84;100.00;100477.78;5044688;28;20136;-57
2022/12/22 08:42:04;;;;;;;46.15;25.80;;;;;;;7.84;100.00;100485.72;5051743;28;20024;-57
2022/12/22 08:44:30;;;;;;;48.13;26.90;;;;;;;7.84;100.00;100493.63;5035598;28;20037;-57
2022/12/22 08:46:57;;;;;;;51.10;27.67;;;;;;;7.85;100.00;100505.09;5038717;28;20025;-57
2022/12/22 08:49:23;;;;;;;48.70;29.30;;;;;;;7.85;100.00;100511.22;5038377;28;20021;-56
2022/12/22 08:51:48;;;;;;;57.42;29.25;;;;;;;7.86;100.00;100525.25;5044695;28;20035;-55
2022/12/22 08:54:14;;;;;;;54.33;30.20;;;;;;;7.88;100.00;100528.66;5052357;28;20059;-57
2022/12/22 08:56:39;;;;;;;52.53;30.15;;;;;;;7.88;100.00;100518.94;5051301;28;20036;-57
2022/12/22 08:59:06;;;;;;;50.30;28.73;;;;;;;7.87;100.00;100519.88;5047577;28;20021;-58
2022/12/22 09:01:34;;;;;;;51.80;28.85;;;;;;;7.83;100.00;100521.06;5047649;28;20053;-57
2022/12/22 09:04:00;;;;;;;53.00;28.38;;;;;;;7.84;100.00;100535.94;5050206;28;20041;-57
2022/12/22 09:06:25;;;;;;;52.22;27.73;;;;;;;7.81;100.00;100540.59;5044636;28;20024;-57
2022/12/22 09:08:59;;;;;;;49.40;27.73;;;;;;;7.78;100.00;100539.88;5046643;28;20029;-56
2022/12/22 09:11:25;;;;;;;50.00;27.58;;;;;;;7.75;100.00;100537.44;5053645;28;20032;-56
2022/12/22 09:13:52;;;;;;;46.88;27.10;;;;;;;7.73;100.00;100531.44;5053584;28;20025;-56
2022/12/22 09:16:19;;;;;;;45.63;26.80;;;;;;;7.72;100.00;100540.28;5053220;28;20056;-57
2022/12/22 09:18:44;;;;;;;50.08;27.00;;;;;;;7.71;100.00;100532.47;5052699;28;20029;-56
2022/12/22 09:21:10;;;;;;;46.08;26.70;;;;;;;7.66;100.00;100540.75;5045757;28;20036;-56
2022/12/22 09:23:35;;;;;;;51.80;27.75;;;;;;;7.64;100.00;100542.63;5036922;28;20087;-56
2022/12/22 09:26:10;;;;;;;50.78;27.67;;;;;;;7.64;100.00;100550.56;5046566;28;20029;-55
2022/12/22 09:28:35;;;;;;;50.80;26.63;;;;;;;7.63;100.00;100555.94;5046273;28;20029;-57
2022/12/22 09:31:01;;;;;;;50.92;27.15;;;;;;;7.62;100.00;100554.28;5053361;28;20025;-57
2022/12/22 09:33:26;;;;;;;53.65;28.08;;;;;;;7.64;100.00;100560.28;5053471;28;20039;-56
2022/12/22 09:35:52;;;;;;;51.40;28.98;;;;;;;7.63;100.00;100564.75;5051912;28;20032;-55
2022/12/22 09:38:17;;;;;;;56.33;29.95;;;;;;;7.65;100.00;100565.47;5052544;28;20040;-56
2022/12/22 09:40:42;;;;;;;63.20;30.20;;;;;;;7.74;100.00;100564.84;5052393;28;20021;-56
2022/12/22 09:43:14;;;;;;;53.70;30.70;;;;;;;7.82;100.00;100571.41;5052788;28;20479;-57
2022/12/22 09:45:40;;;;;;;55.33;30.80;;;;;;;7.85;100.00;100571.19;5040204;28;20025;-57
2022/12/22 09:48:11;;;;;;;55.95;32.72;;;;;;;7.87;100.00;100579.84;5053069;28;20031;-58
2022/12/22 09:50:39;;;;;;;55.60;31.98;;;;;;;7.82;100.00;100580.16;5049213;28;20066;-57
2022/12/22 09:53:07;;;;;;;48.80;30.08;;;;;;;7.78;100.00;100586.63;5052918;28;20107;-57
2022/12/22 09:55:41;;;;;;;52.90;30.52;;;;;;;7.80;100.00;100589.16;5052912;28;20108;-56
2022/12/22 09:58:35;;;;;;;50.47;30.95;;;;;;;7.81;100.00;100588.19;5051953;28;20059;-57
2022/12/22 10:01:23;;;;;;;51.50;28.75;;;;;;;7.85;100.00;100593.19;5052568;28;20498;-57
2022/12/22 10:03:56;;;;;;;48.28;30.40;;;;;;;7.86;100.00;100597.53;5042035;28;20044;-57
2022/12/22 10:06:52;;;;;;;52.70;28.48;;;;;;;7.91;100.00;100589.25;5052507;28;20052;-57
2022/12/22 10:09:25;;;;;;;47.28;27.73;;;;;;;7.94;100.00;100595.19;5051678;28;20108;-55
2022/12/22 10:11:55;;;;;;;49.10;26.48;;;;;;;7.96;100.00;100603.03;5052633;28;20065;-56
2022/12/22 10:14:25;;;;;;;46.63;26.00;;;;;;;7.97;100.00;100618.75;5052446;28;20078;-55
2022/12/22 10:17:16;;;;;;;43.10;23.48;;;;;;;7.99;100.00;100618.66;5042100;28;20471;-57
2022/12/22 10:19:43;;;;;;;37.83;20.63;;;;;;;7.94;100.00;100613.72;5046383;28;20033;-56
2022/12/22 10:22:26;;;;;;;35.15;20.38;;;;;;;7.95;100.00;100618.03;5051548;28;20143;-57
2022/12/22 10:24:52;;;;;;;36.38;20.35;;;;;;;7.92;100.00;100612.09;5052331;28;20020;-57
2022/12/22 10:27:20;;;;;;;34.85;20.45;;;;;;;7.90;100.00;100609.56;5038807;28;20029;-56
2022/12/22 10:29:46;;;;;;;34.03;20.17;;;;;;;7.92;100.00;100612.09;5051474;28;20029;-57
2022/12/22 10:32:17;;;;;;;34.17;18.95;;;;;;;7.90;100.00;100614.84;5044900;28;20021;-55
2022/12/22 10:35:05;;;;;;;32.90;19.02;;;;;;;7.92;100.00;100612.09;5052927;28;20033;-56
2022/12/22 10:37:37;;;;;;;33.28;18.85;;;;;;;7.88;100.00;100618.56;5048876;28;20057;-56
2022/12/22 10:40:18;;;;;;;30.58;18.38;;;;;;;7.88;100.00;100615.94;5045243;28;20036;-57
2022/12/22 10:42:46;;;;;;;33.05;18.25;;;;;;;7.87;100.00;100623.00;5048772;28;20491;-57
2022/12/22 10:45:18;;;;;;;37.33;18.20;;;;;;;7.87;100.00;100615.06;5048522;28;20379;-57
2022/12/22 10:47:48;;;;;;;34.97;19.42;;;;;;;7.88;100.00;100622.06;5052371;28;20104;-56
2022/12/22 10:50:13;;;;;;;35.17;19.08;;;;;;;7.89;100.00;100621.13;5046714;28;20072;-56
2022/12/22 10:52:39;;;;;;;34.88;19.10;;;;;;;7.90;100.00;100625.44;5042027;28;20491;-55
2022/12/22 10:55:24;;;;;;;36.20;20.33;;;;;;;7.94;100.00;100629.56;5050968;28;20082;-56
2022/12/22 10:57:50;;;;;;;30.55;17.63;;;;;;;7.94;100.00;100626.94;5045484;28;20028;-56
2022/12/22 11:00:27;;;;;;;34.83;19.27;;;;;;;7.95;100.00;100633.91;5051951;28;20026;-53
2022/12/22 11:02:56;;;;;;;28.58;17.10;;;;;;;7.95;100.00;100639.19;5050974;28;20489;-55
2022/12/22 11:05:22;;;;;;;31.08;17.38;;;;;;;7.96;100.00;100643.53;5052096;28;20378;-55
2022/12/22 11:07:47;;;;;;;26.33;15.23;;;;;;;7.97;100.00;100644.38;5047010;28;20155;-56
2022/12/22 11:10:52;;;;;;;30.33;15.90;;;;;;;8.03;100.00;100637.81;5036050;28;20036;-54
2022/12/22 11:13:28;;;;;;;31.63;17.08;;;;;;;8.06;100.00;100649.03;5041073;28;20557;-57
2022/12/22 11:16:03;;;;;;;29.83;18.77;;;;;;;8.06;100.00;100640.22;5039043;28;20056;-56
2022/12/22 11:18:46;;;;;;;34.72;21.50;;;;;;;8.06;100.00;100650.81;5037151;28;20032;-56
2022/12/22 11:21:42;;;;;;;36.83;24.25;;;;;;;8.07;100.00;100634.84;5042764;28;20045;-53
2022/12/22 11:24:24;;;;;;;38.60;24.95;;;;;;;8.08;100.00;100638.34;5048481;28;20104;-56
2022/12/22 11:27:37;;;;;;;37.63;24.27;;;;;;;8.10;100.00;100647.03;5039811;28;20371;-56
2022/12/22 11:30:02;;;;;;;38.33;24.77;;;;;;;8.10;100.00;100645.22;5031530;28;20045;-55
2022/12/22 11:32:30;;;;;;;39.70;25.60;;;;;;;8.14;100.00;100651.13;5045878;28;20021;-54
2022/12/22 11:35:18;;;;;;;45.03;26.80;;;;;;;8.18;100.00;100657.03;5043473;28;20319;-55
2022/12/22 11:37:47;;;;;;;40.00;26.58;;;;;;;8.16;100.00;100651.91;5039151;28;20045;-56
2022/12/22 11:40:15;;;;;;;36.30;26.40;;;;;;;8.18;100.00;100657.03;5049424;28;20041;-54
2022/12/22 11:42:56;;;;;;;37.00;24.65;;;;;;;8.19;100.00;100659.59;5046998;28;20029;-56
2022/12/22 11:45:36;;;;;;;38.17;25.45;;;;;;;8.19;100.00;100654.28;5046863;28;20119;-54
2022/12/22 11:48:07;;;;;;;33.97;24.35;;;;;;;8.22;100.00;100656.75;5049430;28;20029;-56
2022/12/22 11:50:47;;;;;;;37.50;26.20;;;;;;;8.25;100.00;100661.81;5037207;28;20394;-55
2022/12/22 11:53:31;;;;;;;37.55;26.45;;;;;;;8.28;100.00;100653.66;5042573;28;20120;-55
2022/12/22 11:56:11;;;;;;;37.30;25.90;;;;;;;8.30;100.00;100664.16;5038650;28;20068;-55
2022/12/22 11:58:47;;;;;;;37.83;24.77;;;;;;;8.33;100.00;100656.84;5044750;28;20037;-55
2022/12/22 12:01:48;;;;;;;32.88;22.67;;;;;;;8.36;100.00;100646.97;5046349;28;20112;-56
2022/12/22 12:04:31;;;;;;;30.35;21.58;;;;;;;8.33;100.00;100645.41;5045606;28;20048;-54
2022/12/22 12:07:28;;;;;;;28.58;19.48;;;;;;;8.33;100.00;100640.13;5050322;28;20033;-53
2022/12/22 12:10:05;;;;;;;27.13;18.40;;;;;;;8.30;100.00;100641.16;5048517;28;20041;-55
2022/12/22 12:12:52;;;;;;;30.25;17.98;;;;;;;8.31;100.00;100637.59;5050570;28;20012;-55
2022/12/22 12:15:45;;;;;;;25.85;17.80;;;;;;;8.31;100.00;100631.41;5049413;28;20071;-56
2022/12/22 12:18:35;;;;;;;25.20;17.73;;;;;;;8.32;100.00;100628.66;5049932;28;20035;-54
2022/12/22 12:21:00;;;;;;;29.15;18.23;;;;;;;8.32;100.00;100623.38;5049351;28;20581;-56
2022/12/22 12:23:50;;;;;;;25.00;17.50;;;;;;;8.34;100.00;100610.03;5053057;28;20056;-55
2022/12/22 12:26:27;;;;;;;27.50;17.13;;;;;;;8.34;100.00;100610.91;5044793;28;20770;-55
2022/12/22 12:29:14;;;;;;;24.23;16.60;;;;;;;8.37;100.00;100606.34;5036792;28;20065;-54
2022/12/22 12:31:47;;;;;;;20.75;15.88;;;;;;;8.37;100.00;100603.69;5034499;28;20092;-55
2022/12/22 12:34:15;;;;;;;23.17;16.45;;;;;;;8.38;100.00;100597.47;5034121;28;20064;-56
2022/12/22 12:36:50;;;;;;;26.15;17.00;;;;;;;8.41;100.00;100605.16;5046117;28;20025;-54
2022/12/22 12:39:30;;;;;;;25.27;16.10;;;;;;;8.43;100.00;100598.00;5045572;28;20080;-55
2022/12/22 12:42:24;;;;;;;25.15;17.33;;;;;;;8.43;100.00;100598.84;5040924;28;20025;-55
2022/12/22 12:44:52;;;;;;;26.10;17.20;;;;;;;8.43;100.00;100608.59;5045732;28;20072;-53
2022/12/22 12:47:30;;;;;;;22.63;16.30;;;;;;;8.43;100.00;100600.66;5051393;28;20029;-56
2022/12/22 12:49:59;;;;;;;25.55;16.77;;;;;;;8.42;100.00;100601.56;5045734;28;20056;-53
2022/12/22 12:52:37;;;;;;;26.52;17.48;;;;;;;8.44;100.00;100600.56;5042907;28;20055;-56
2022/12/22 12:55:22;;;;;;;24.05;16.92;;;;;;;8.45;100.00;100602.22;5040056;28;20104;-54
2022/12/22 12:57:48;;;;;;;24.38;17.75;;;;;;;8.45;100.00;100596.09;5039161;28;20028;-53
2022/12/22 13:00:32;;;;;;;26.63;19.40;;;;;;;8.50;100.00;100589.50;5049190;28;20102;-55
2022/12/22 13:03:02;;;;;;;25.98;18.95;;;;;;;8.50;100.00;100593.97;5053311;28;20163;-53
2022/12/22 13:05:35;;;;;;;28.08;19.83;;;;;;;8.56;100.00;100592.66;5054106;28;20021;-53
2022/12/22 13:08:29;;;;;;;28.15;19.23;;;;;;;8.61;100.00;100601.97;5054343;28;20025;-51
2022/12/22 13:10:54;;;;;;;24.98;19.98;;;;;;;8.62;100.00;100592.22;5043814;28;20021;-54
2022/12/22 13:13:25;;;;;;;26.70;19.90;;;;;;;8.63;100.00;100600.06;5053698;28;20033;-52
2022/12/22 13:16:03;;;;;;;28.92;20.80;;;;;;;8.62;100.00;100603.66;5052138;28;20303;-54
2022/12/22 13:18:28;;;;;;;30.63;21.13;;;;;;;8.58;100.00;100596.91;5041438;28;20375;-53
2022/12/22 13:21:26;;;;;;;25.05;19.73;;;;;;;8.58;100.00;100601.34;5045316;28;20040;-54
2022/12/22 13:23:54;;;;;;;23.88;18.67;;;;;;;8.50;100.00;100599.25;5023091;28;20051;-53
2022/12/22 13:26:24;;;;;;;24.23;17.55;;;;;;;8.46;100.00;100609.22;5044172;28;20037;-52
2022/12/22 13:28:57;;;;;;;23.25;16.85;;;;;;;8.40;100.00;100601.69;5046580;28;20112;-55
2022/12/22 13:31:39;;;;;;;16.65;14.27;;;;;;;8.38;100.00;100595.66;5051316;28;20528;-53
2022/12/22 13:34:23;;;;;;;21.92;14.65;;;;;;;8.36;100.00;100599.34;5053441;28;20082;-55
2022/12/22 13:36:49;;;;;;;16.60;12.63;;;;;;;8.33;100.00;100588.03;5052603;28;20115;-55
2022/12/22 13:39:15;;;;;;;20.00;13.82;;;;;;;8.31;100.00;100587.31;5052746;28;20032;-52
2022/12/22 13:41:44;;;;;;;18.73;12.50;;;;;;;8.30;100.00;100584.75;5039156;28;20479;-53
2022/12/22 13:44:15;;;;;;;18.20;13.50;;;;;;;8.31;100.00;100575.84;5036416;28;20365;-55
2022/12/22 13:46:41;;;;;;;15.02;12.40;;;;;;;8.30;100.00;100571.53;5042243;28;20025;-53
2022/12/22 13:49:11;;;;;;;19.33;13.57;;;;;;;8.30;100.00;100572.38;5037090;28;20026;-52
2022/12/22 13:51:38;;;;;;;18.80;12.23;;;;;;;8.29;100.00;100565.41;5036972;28;20044;-55
2022/12/22 13:54:28;;;;;;;16.90;13.00;;;;;;;8.32;100.00;100564.31;5039058;28;20021;-53
2022/12/22 13:56:58;;;;;;;17.98;12.48;;;;;;;8.29;100.00;100565.41;5041421;28;20116;-54
2022/12/22 13:59:38;;;;;;;19.83;12.32;;;;;;;8.28;100.00;100563.72;5037544;28;20108;-54
2022/12/22 14:02:14;;;;;;;17.88;13.30;;;;;;;8.26;100.00;100557.69;5035165;28;20029;-54
2022/12/22 14:04:43;;;;;;;19.40;13.05;;;;;;;8.24;100.00;100554.28;5038193;28;20029;-56
2022/12/22 14:07:13;;;;;;;17.27;12.67;;;;;;;8.23;100.00;100546.47;5038414;28;20021;-55
2022/12/22 14:09:46;;;;;;;15.52;11.73;;;;;;;8.21;100.00;100548.38;5038773;28;20040;-57
2022/12/22 14:12:17;;;;;;;15.55;12.27;;;;;;;8.20;100.00;100552.81;5033158;28;20029;-56
2022/12/22 14:14:45;;;;;;;17.77;11.85;;;;;;;8.17;100.00;100547.75;5040197;28;20056;-56
2022/12/22 14:17:31;;;;;;;18.20;12.50;;;;;;;8.18;100.00;100552.09;5039767;28;20013;-56
2022/12/22 14:20:11;;;;;;;16.83;12.40;;;;;;;8.17;100.00;100538.97;5032036;28;20414;-56
2022/12/22 14:22:45;;;;;;;17.98;11.55;;;;;;;8.15;100.00;100536.44;5033392;28;20535;-56
2022/12/22 14:25:33;;;;;;;16.38;10.93;;;;;;;8.14;100.00;100529.44;5026252;28;20029;-56
2022/12/22 14:27:59;;;;;;;13.57;11.38;;;;;;;8.10;100.00;100523.53;5031391;28;20041;-56
2022/12/22 14:30:29;;;;;;;14.35;11.35;;;;;;;8.06;100.00;100521.22;5022801;28;20080;-56
2022/12/22 14:32:55;;;;;;;16.70;11.85;;;;;;;8.03;100.00;100522.28;5043287;28;20075;-55
2022/12/22 14:35:20;;;;;;;20.67;11.98;;;;;;;8.02;100.00;100519.75;5044236;28;20036;-55
2022/12/22 14:38:18;;;;;;;15.52;11.55;;;;;;;8.02;100.00;100519.75;5043545;28;20044;-56
2022/12/22 14:40:44;;;;;;;17.35;11.52;;;;;;;7.97;100.00;100512.13;5040275;28;20515;-56
2022/12/22 14:43:24;;;;;;;15.82;11.23;;;;;;;7.93;100.00;100505.38;5043333;28;20092;-54
2022/12/22 14:45:51;;;;;;;15.30;11.25;;;;;;;7.93;100.00;100500.09;5044205;28;20365;-54
2022/12/22 14:48:44;;;;;;;13.75;11.60;;;;;;;7.91;100.00;100507.28;5046083;28;20041;-56
2022/12/22 14:51:09;;;;;;;17.38;11.48;;;;;;;7.86;100.00;100497.03;5044747;28;20041;-56
2022/12/22 14:53:49;;;;;;;16.98;11.48;;;;;;;7.83;100.00;100497.25;5047510;28;20476;-53
2022/12/22 14:56:16;;;;;;;14.68;10.98;;;;;;;7.81;100.00;100500.94;5048350;28;20037;-54
2022/12/22 14:58:43;;;;;;;15.57;11.10;;;;;;;7.75;100.00;100495.13;5037992;28;20086;-52
2022/12/22 15:01:26;;;;;;;15.27;10.63;;;;;;;7.73;100.00;100489.13;5046878;28;20048;-56